sensor_id;sensor_type;location;lat;lon;timestamp;P1;durP1;ratioP1;P2;durP2;ratioP2
38027;SDS011;23837;51.172;9.226;2024-03-06T00:01:29;36.25;;;15.02;;
38027;SDS011;23837;51.172;9.226;2024-03-06T00:03:54;34.50;;;15.73;;
38027;SDS011;23837;51.172;9.226;2024-03-06T00:06:20;40.42;;;16.75;;
38027;SDS011;23837;51.172;9.226;2024-03-06T00:08:45;38.95;;;16.95;;
38027;SDS011;23837;51.172;9.226;2024-03-06T00:11:10;33.58;;;15.48;;
38027;SDS011;23837;51.172;9.226;2024-03-06T00:13:36;37.30;;;16.42;;
38027;SDS011;23837;51.172;9.226;2024-03-06T00:16:01;40.42;;;16.70;;
38027;SDS011;23837;51.172;9.226;2024-03-06T00:18:26;36.30;;;16.30;;
38027;SDS011;23837;51.172;9.226;2024-03-06T00:20:52;38.70;;;16.52;;
38027;SDS011;23837;51.172;9.226;2024-03-06T00:23:17;41.17;;;16.77;;
38027;SDS011;23837;51.172;9.226;2024-03-06T00:25:43;38.83;;;16.95;;
38027;SDS011;23837;51.172;9.226;2024-03-06T00:28:08;42.75;;;17.58;;
38027;SDS011;23837;51.172;9.226;2024-03-06T00:30:33;40.17;;;17.55;;
38027;SDS011;23837;51.172;9.226;2024-03-06T00:32:59;41.25;;;17.08;;
38027;SDS011;23837;51.172;9.226;2024-03-06T00:35:24;37.08;;;16.08;;
38027;SDS011;23837;51.172;9.226;2024-03-06T00:37:51;37.20;;;16.33;;
38027;SDS011;23837;51.172;9.226;2024-03-06T00:40:16;37.13;;;15.52;;
38027;SDS011;23837;51.172;9.226;2024-03-06T00:42:41;34.97;;;15.20;;
38027;SDS011;23837;51.172;9.226;2024-03-06T00:45:07;37.28;;;15.85;;
38027;SDS011;23837;51.172;9.226;2024-03-06T00:47:32;35.53;;;16.08;;
38027;SDS011;23837;51.172;9.226;2024-03-06T00:49:59;35.83;;;15.93;;
38027;SDS011;23837;51.172;9.226;2024-03-06T00:52:25;39.78;;;17.30;;
38027;SDS011;23837;51.172;9.226;2024-03-06T00:54:50;37.47;;;16.50;;
38027;SDS011;23837;51.172;9.226;2024-03-06T00:57:15;38.33;;;16.92;;
38027;SDS011;23837;51.172;9.226;2024-03-06T00:59:41;40.00;;;16.70;;
38027;SDS011;23837;51.172;9.226;2024-03-06T01:02:06;37.92;;;16.50;;
38027;SDS011;23837;51.172;9.226;2024-03-06T01:04:31;39.78;;;17.48;;
38027;SDS011;23837;51.172;9.226;2024-03-06T01:06:57;48.00;;;19.77;;
38027;SDS011;23837;51.172;9.226;2024-03-06T01:09:23;42.33;;;18.48;;
38027;SDS011;23837;51.172;9.226;2024-03-06T01:11:49;41.63;;;16.88;;
38027;SDS011;23837;51.172;9.226;2024-03-06T01:14:14;107.30;;;40.40;;
38027;SDS011;23837;51.172;9.226;2024-03-06T01:16:39;102.43;;;39.83;;
38027;SDS011;23837;51.172;9.226;2024-03-06T01:19:05;50.95;;;21.73;;
38027;SDS011;23837;51.172;9.226;2024-03-06T01:21:30;41.67;;;18.75;;
38027;SDS011;23837;51.172;9.226;2024-03-06T01:23:55;43.88;;;19.17;;
38027;SDS011;23837;51.172;9.226;2024-03-06T01:26:21;41.35;;;17.65;;
38027;SDS011;23837;51.172;9.226;2024-03-06T01:28:46;40.90;;;17.70;;
38027;SDS011;23837;51.172;9.226;2024-03-06T01:31:11;38.35;;;16.80;;
38027;SDS011;23837;51.172;9.226;2024-03-06T01:33:37;38.90;;;16.58;;
38027;SDS011;23837;51.172;9.226;2024-03-06T01:36:02;41.25;;;17.65;;
38027;SDS011;23837;51.172;9.226;2024-03-06T01:38:28;42.40;;;16.67;;
38027;SDS011;23837;51.172;9.226;2024-03-06T01:40:53;37.58;;;17.13;;
38027;SDS011;23837;51.172;9.226;2024-03-06T01:43:19;41.90;;;17.55;;
38027;SDS011;23837;51.172;9.226;2024-03-06T01:45:45;38.65;;;17.17;;
38027;SDS011;23837;51.172;9.226;2024-03-06T01:48:12;38.72;;;17.60;;
38027;SDS011;23837;51.172;9.226;2024-03-06T01:50:37;39.97;;;16.95;;
38027;SDS011;23837;51.172;9.226;2024-03-06T01:53:03;37.58;;;16.98;;
38027;SDS011;23837;51.172;9.226;2024-03-06T01:55:28;39.78;;;16.65;;
38027;SDS011;23837;51.172;9.226;2024-03-06T01:57:53;44.58;;;17.67;;
38027;SDS011;23837;51.172;9.226;2024-03-06T02:00:19;38.95;;;16.38;;
38027;SDS011;23837;51.172;9.226;2024-03-06T02:02:46;41.83;;;17.77;;
38027;SDS011;23837;51.172;9.226;2024-03-06T02:05:11;44.65;;;17.88;;
38027;SDS011;23837;51.172;9.226;2024-03-06T02:07:38;42.13;;;16.48;;
38027;SDS011;23837;51.172;9.226;2024-03-06T02:12:32;40.90;;;15.93;;
38027;SDS011;23837;51.172;9.226;2024-03-06T02:14:58;42.42;;;17.77;;
38027;SDS011;23837;51.172;9.226;2024-03-06T02:17:23;41.25;;;17.73;;
38027;SDS011;23837;51.172;9.226;2024-03-06T02:19:50;45.10;;;18.33;;
38027;SDS011;23837;51.172;9.226;2024-03-06T02:22:16;42.40;;;18.33;;
38027;SDS011;23837;51.172;9.226;2024-03-06T02:24:44;43.08;;;17.25;;
38027;SDS011;23837;51.172;9.226;2024-03-06T02:27:10;41.30;;;17.30;;
38027;SDS011;23837;51.172;9.226;2024-03-06T02:29:35;41.50;;;16.40;;
38027;SDS011;23837;51.172;9.226;2024-03-06T02:32:00;42.28;;;17.08;;
38027;SDS011;23837;51.172;9.226;2024-03-06T02:34:29;41.53;;;16.77;;
38027;SDS011;23837;51.172;9.226;2024-03-06T02:36:55;42.88;;;17.77;;
38027;SDS011;23837;51.172;9.226;2024-03-06T02:39:21;42.75;;;17.50;;
38027;SDS011;23837;51.172;9.226;2024-03-06T02:41:47;47.75;;;19.73;;
38027;SDS011;23837;51.172;9.226;2024-03-06T02:44:12;41.80;;;16.85;;
38027;SDS011;23837;51.172;9.226;2024-03-06T02:46:38;40.60;;;16.73;;
38027;SDS011;23837;51.172;9.226;2024-03-06T02:49:04;40.92;;;17.23;;
38027;SDS011;23837;51.172;9.226;2024-03-06T02:51:31;37.75;;;16.38;;
38027;SDS011;23837;51.172;9.226;2024-03-06T02:53:56;40.25;;;16.60;;
38027;SDS011;23837;51.172;9.226;2024-03-06T02:56:21;39.95;;;16.17;;
38027;SDS011;23837;51.172;9.226;2024-03-06T02:58:47;39.55;;;16.20;;
38027;SDS011;23837;51.172;9.226;2024-03-06T03:01:13;40.72;;;16.17;;
38027;SDS011;23837;51.172;9.226;2024-03-06T03:03:41;39.38;;;15.85;;
38027;SDS011;23837;51.172;9.226;2024-03-06T03:06:07;41.00;;;16.92;;
38027;SDS011;23837;51.172;9.226;2024-03-06T03:08:32;42.47;;;17.05;;
38027;SDS011;23837;51.172;9.226;2024-03-06T03:10:58;38.00;;;15.82;;
38027;SDS011;23837;51.172;9.226;2024-03-06T03:13:23;41.15;;;16.80;;
38027;SDS011;23837;51.172;9.226;2024-03-06T03:15:49;41.42;;;17.48;;
38027;SDS011;23837;51.172;9.226;2024-03-06T03:18:14;44.75;;;17.35;;
38027;SDS011;23837;51.172;9.226;2024-03-06T03:20:40;40.88;;;16.55;;
38027;SDS011;23837;51.172;9.226;2024-03-06T03:23:05;40.90;;;16.40;;
38027;SDS011;23837;51.172;9.226;2024-03-06T03:25:36;40.42;;;16.92;;
38027;SDS011;23837;51.172;9.226;2024-03-06T03:28:02;40.03;;;17.52;;
38027;SDS011;23837;51.172;9.226;2024-03-06T03:30:27;43.17;;;17.40;;
38027;SDS011;23837;51.172;9.226;2024-03-06T03:32:53;36.55;;;16.15;;
38027;SDS011;23837;51.172;9.226;2024-03-06T03:35:18;43.08;;;17.10;;
38027;SDS011;23837;51.172;9.226;2024-03-06T03:37:46;38.47;;;15.95;;
38027;SDS011;23837;51.172;9.226;2024-03-06T03:40:11;39.13;;;16.17;;
38027;SDS011;23837;51.172;9.226;2024-03-06T03:42:37;38.28;;;16.27;;
38027;SDS011;23837;51.172;9.226;2024-03-06T03:45:03;42.78;;;17.40;;
38027;SDS011;23837;51.172;9.226;2024-03-06T03:47:28;37.95;;;16.00;;
38027;SDS011;23837;51.172;9.226;2024-03-06T03:49:54;43.38;;;18.02;;
38027;SDS011;23837;51.172;9.226;2024-03-06T03:52:19;42.80;;;18.45;;
38027;SDS011;23837;51.172;9.226;2024-03-06T03:54:44;43.95;;;16.48;;
38027;SDS011;23837;51.172;9.226;2024-03-06T03:57:10;41.15;;;16.85;;
38027;SDS011;23837;51.172;9.226;2024-03-06T03:59:36;39.33;;;16.70;;
38027;SDS011;23837;51.172;9.226;2024-03-06T04:02:03;45.85;;;17.70;;
38027;SDS011;23837;51.172;9.226;2024-03-06T04:04:29;40.03;;;16.38;;
38027;SDS011;23837;51.172;9.226;2024-03-06T04:06:54;39.67;;;16.08;;
38027;SDS011;23837;51.172;9.226;2024-03-06T04:09:20;42.47;;;17.27;;
38027;SDS011;23837;51.172;9.226;2024-03-06T04:11:45;39.60;;;16.60;;
38027;SDS011;23837;51.172;9.226;2024-03-06T04:14:11;43.72;;;17.20;;
38027;SDS011;23837;51.172;9.226;2024-03-06T04:16:36;40.33;;;16.00;;
38027;SDS011;23837;51.172;9.226;2024-03-06T04:19:01;38.53;;;15.68;;
38027;SDS011;23837;51.172;9.226;2024-03-06T04:21:27;39.28;;;15.65;;
38027;SDS011;23837;51.172;9.226;2024-03-06T04:23:52;37.97;;;16.20;;
38027;SDS011;23837;51.172;9.226;2024-03-06T04:26:18;41.83;;;16.20;;
38027;SDS011;23837;51.172;9.226;2024-03-06T04:28:43;40.03;;;17.08;;
38027;SDS011;23837;51.172;9.226;2024-03-06T04:31:09;40.05;;;16.83;;
38027;SDS011;23837;51.172;9.226;2024-03-06T04:33:34;41.75;;;17.45;;
38027;SDS011;23837;51.172;9.226;2024-03-06T04:36:00;44.03;;;17.15;;
38027;SDS011;23837;51.172;9.226;2024-03-06T04:38:25;43.60;;;17.83;;
38027;SDS011;23837;51.172;9.226;2024-03-06T04:40:51;40.20;;;16.48;;
38027;SDS011;23837;51.172;9.226;2024-03-06T04:43:16;44.92;;;18.50;;
38027;SDS011;23837;51.172;9.226;2024-03-06T04:45:41;42.33;;;17.73;;
38027;SDS011;23837;51.172;9.226;2024-03-06T04:48:07;40.55;;;16.55;;
38027;SDS011;23837;51.172;9.226;2024-03-06T04:50:32;41.47;;;18.10;;
38027;SDS011;23837;51.172;9.226;2024-03-06T04:52:58;43.92;;;18.70;;
38027;SDS011;23837;51.172;9.226;2024-03-06T04:55:23;40.88;;;17.73;;
38027;SDS011;23837;51.172;9.226;2024-03-06T04:57:51;44.95;;;18.65;;
38027;SDS011;23837;51.172;9.226;2024-03-06T05:00:18;41.17;;;17.30;;
38027;SDS011;23837;51.172;9.226;2024-03-06T05:02:43;43.63;;;18.42;;
38027;SDS011;23837;51.172;9.226;2024-03-06T05:05:09;41.92;;;17.88;;
38027;SDS011;23837;51.172;9.226;2024-03-06T05:07:34;37.58;;;16.95;;
38027;SDS011;23837;51.172;9.226;2024-03-06T05:09:59;42.35;;;18.05;;
38027;SDS011;23837;51.172;9.226;2024-03-06T05:12:26;42.50;;;17.58;;
38027;SDS011;23837;51.172;9.226;2024-03-06T05:14:52;37.55;;;16.23;;
38027;SDS011;23837;51.172;9.226;2024-03-06T05:17:17;40.40;;;17.05;;
38027;SDS011;23837;51.172;9.226;2024-03-06T05:19:45;43.92;;;18.05;;
38027;SDS011;23837;51.172;9.226;2024-03-06T05:22:10;38.95;;;16.92;;
38027;SDS011;23837;51.172;9.226;2024-03-06T05:24:39;41.95;;;18.23;;
38027;SDS011;23837;51.172;9.226;2024-03-06T05:27:04;41.65;;;18.95;;
38027;SDS011;23837;51.172;9.226;2024-03-06T05:29:29;42.97;;;18.67;;
38027;SDS011;23837;51.172;9.226;2024-03-06T05:31:55;43.45;;;17.50;;
38027;SDS011;23837;51.172;9.226;2024-03-06T05:34:21;39.63;;;17.33;;
38027;SDS011;23837;51.172;9.226;2024-03-06T05:36:47;39.05;;;17.13;;
38027;SDS011;23837;51.172;9.226;2024-03-06T05:39:12;42.22;;;17.45;;
38027;SDS011;23837;51.172;9.226;2024-03-06T05:41:38;46.75;;;18.48;;
38027;SDS011;23837;51.172;9.226;2024-03-06T05:44:05;42.08;;;17.55;;
38027;SDS011;23837;51.172;9.226;2024-03-06T05:46:30;42.13;;;17.67;;
38027;SDS011;23837;51.172;9.226;2024-03-06T05:48:56;42.55;;;18.25;;
38027;SDS011;23837;51.172;9.226;2024-03-06T05:51:21;41.53;;;17.38;;
38027;SDS011;23837;51.172;9.226;2024-03-06T05:53:46;39.88;;;17.70;;
38027;SDS011;23837;51.172;9.226;2024-03-06T05:56:12;43.00;;;17.50;;
38027;SDS011;23837;51.172;9.226;2024-03-06T05:58:37;44.88;;;19.15;;
38027;SDS011;23837;51.172;9.226;2024-03-06T06:01:02;45.08;;;18.17;;
38027;SDS011;23837;51.172;9.226;2024-03-06T06:03:31;43.13;;;17.77;;
38027;SDS011;23837;51.172;9.226;2024-03-06T06:05:56;43.15;;;18.48;;
38027;SDS011;23837;51.172;9.226;2024-03-06T06:08:22;44.17;;;18.52;;
38027;SDS011;23837;51.172;9.226;2024-03-06T06:10:47;43.55;;;18.83;;
38027;SDS011;23837;51.172;9.226;2024-03-06T06:13:13;42.03;;;17.88;;
38027;SDS011;23837;51.172;9.226;2024-03-06T06:15:38;45.88;;;18.67;;
38027;SDS011;23837;51.172;9.226;2024-03-06T06:18:04;44.58;;;18.58;;
38027;SDS011;23837;51.172;9.226;2024-03-06T06:20:29;48.80;;;18.45;;
38027;SDS011;23837;51.172;9.226;2024-03-06T06:22:55;47.75;;;19.52;;
38027;SDS011;23837;51.172;9.226;2024-03-06T06:25:20;47.22;;;18.88;;
38027;SDS011;23837;51.172;9.226;2024-03-06T06:27:46;48.03;;;19.33;;
38027;SDS011;23837;51.172;9.226;2024-03-06T06:30:11;51.50;;;20.10;;
38027;SDS011;23837;51.172;9.226;2024-03-06T06:32:37;46.53;;;19.88;;
38027;SDS011;23837;51.172;9.226;2024-03-06T06:35:03;44.88;;;18.73;;
38027;SDS011;23837;51.172;9.226;2024-03-06T06:37:28;47.80;;;19.10;;
38027;SDS011;23837;51.172;9.226;2024-03-06T06:39:53;58.40;;;23.98;;
38027;SDS011;23837;51.172;9.226;2024-03-06T06:42:19;49.60;;;20.90;;
38027;SDS011;23837;51.172;9.226;2024-03-06T06:44:44;43.40;;;17.48;;
38027;SDS011;23837;51.172;9.226;2024-03-06T06:47:09;44.45;;;17.67;;
38027;SDS011;23837;51.172;9.226;2024-03-06T06:49:35;44.50;;;18.17;;
38027;SDS011;23837;51.172;9.226;2024-03-06T06:52:00;43.25;;;17.30;;
38027;SDS011;23837;51.172;9.226;2024-03-06T06:54:25;44.33;;;18.63;;
38027;SDS011;23837;51.172;9.226;2024-03-06T06:56:51;45.03;;;19.85;;
38027;SDS011;23837;51.172;9.226;2024-03-06T06:59:16;43.22;;;18.52;;
38027;SDS011;23837;51.172;9.226;2024-03-06T07:01:42;40.70;;;18.13;;
38027;SDS011;23837;51.172;9.226;2024-03-06T07:04:08;46.45;;;18.90;;
38027;SDS011;23837;51.172;9.226;2024-03-06T07:06:33;47.13;;;19.27;;
38027;SDS011;23837;51.172;9.226;2024-03-06T07:08:59;59.47;;;26.48;;
38027;SDS011;23837;51.172;9.226;2024-03-06T07:11:24;53.58;;;22.55;;
38027;SDS011;23837;51.172;9.226;2024-03-06T07:13:50;48.58;;;20.27;;
38027;SDS011;23837;51.172;9.226;2024-03-06T07:16:16;46.67;;;19.35;;
38027;SDS011;23837;51.172;9.226;2024-03-06T07:18:41;56.53;;;24.50;;
38027;SDS011;23837;51.172;9.226;2024-03-06T07:21:07;47.50;;;19.80;;
38027;SDS011;23837;51.172;9.226;2024-03-06T07:23:32;43.58;;;18.40;;
38027;SDS011;23837;51.172;9.226;2024-03-06T07:25:58;44.15;;;18.17;;
38027;SDS011;23837;51.172;9.226;2024-03-06T07:28:24;41.05;;;17.13;;
38027;SDS011;23837;51.172;9.226;2024-03-06T07:30:51;46.63;;;18.88;;
38027;SDS011;23837;51.172;9.226;2024-03-06T07:33:16;47.85;;;19.02;;
38027;SDS011;23837;51.172;9.226;2024-03-06T07:35:41;68.78;;;29.33;;
38027;SDS011;23837;51.172;9.226;2024-03-06T07:38:07;83.82;;;37.42;;
38027;SDS011;23837;51.172;9.226;2024-03-06T07:40:32;53.60;;;23.15;;
38027;SDS011;23837;51.172;9.226;2024-03-06T07:42:57;55.97;;;20.77;;
38027;SDS011;23837;51.172;9.226;2024-03-06T07:45:25;56.47;;;25.03;;
38027;SDS011;23837;51.172;9.226;2024-03-06T07:47:51;57.22;;;23.35;;
38027;SDS011;23837;51.172;9.226;2024-03-06T07:50:16;58.45;;;23.00;;
38027;SDS011;23837;51.172;9.226;2024-03-06T07:52:47;63.55;;;24.25;;
38027;SDS011;23837;51.172;9.226;2024-03-06T07:55:12;67.18;;;23.65;;
38027;SDS011;23837;51.172;9.226;2024-03-06T07:57:38;61.65;;;23.85;;
38027;SDS011;23837;51.172;9.226;2024-03-06T08:00:04;65.35;;;24.40;;
38027;SDS011;23837;51.172;9.226;2024-03-06T08:02:39;62.78;;;23.15;;
38027;SDS011;23837;51.172;9.226;2024-03-06T08:05:08;68.45;;;24.98;;
38027;SDS011;23837;51.172;9.226;2024-03-06T08:07:35;72.57;;;26.60;;
38027;SDS011;23837;51.172;9.226;2024-03-06T08:10:00;72.63;;;25.50;;
38027;SDS011;23837;51.172;9.226;2024-03-06T08:12:25;78.80;;;27.30;;
38027;SDS011;23837;51.172;9.226;2024-03-06T08:14:51;65.88;;;24.30;;
38027;SDS011;23837;51.172;9.226;2024-03-06T08:17:16;70.55;;;24.75;;
38027;SDS011;23837;51.172;9.226;2024-03-06T08:19:41;69.07;;;25.15;;
38027;SDS011;23837;51.172;9.226;2024-03-06T08:22:07;77.85;;;28.08;;
38027;SDS011;23837;51.172;9.226;2024-03-06T08:24:32;75.70;;;26.50;;
38027;SDS011;23837;51.172;9.226;2024-03-06T08:26:57;74.22;;;25.08;;
38027;SDS011;23837;51.172;9.226;2024-03-06T08:29:23;68.35;;;24.38;;
38027;SDS011;23837;51.172;9.226;2024-03-06T08:31:48;68.85;;;24.65;;
38027;SDS011;23837;51.172;9.226;2024-03-06T08:34:13;62.83;;;24.88;;
38027;SDS011;23837;51.172;9.226;2024-03-06T08:36:39;69.63;;;24.05;;
38027;SDS011;23837;51.172;9.226;2024-03-06T08:39:04;66.63;;;24.25;;
38027;SDS011;23837;51.172;9.226;2024-03-06T08:41:30;67.57;;;24.55;;
38027;SDS011;23837;51.172;9.226;2024-03-06T08:43:56;61.10;;;23.23;;
38027;SDS011;23837;51.172;9.226;2024-03-06T08:46:22;64.25;;;24.98;;
38027;SDS011;23837;51.172;9.226;2024-03-06T08:48:49;66.15;;;24.70;;
38027;SDS011;23837;51.172;9.226;2024-03-06T08:51:14;69.53;;;25.33;;
38027;SDS011;23837;51.172;9.226;2024-03-06T08:53:40;66.20;;;25.60;;
38027;SDS011;23837;51.172;9.226;2024-03-06T08:56:05;68.53;;;25.92;;
38027;SDS011;23837;51.172;9.226;2024-03-06T08:58:31;72.90;;;25.63;;
38027;SDS011;23837;51.172;9.226;2024-03-06T09:00:56;61.30;;;23.83;;
38027;SDS011;23837;51.172;9.226;2024-03-06T09:03:24;66.93;;;24.35;;
38027;SDS011;23837;51.172;9.226;2024-03-06T09:05:49;61.60;;;24.15;;
38027;SDS011;23837;51.172;9.226;2024-03-06T09:08:15;65.18;;;24.05;;
38027;SDS011;23837;51.172;9.226;2024-03-06T09:10:40;63.78;;;24.35;;
38027;SDS011;23837;51.172;9.226;2024-03-06T09:13:05;67.15;;;24.08;;
38027;SDS011;23837;51.172;9.226;2024-03-06T09:15:31;68.60;;;25.00;;
38027;SDS011;23837;51.172;9.226;2024-03-06T09:17:56;69.57;;;25.10;;
38027;SDS011;23837;51.172;9.226;2024-03-06T09:20:22;65.25;;;24.55;;
38027;SDS011;23837;51.172;9.226;2024-03-06T09:22:49;62.08;;;24.33;;
38027;SDS011;23837;51.172;9.226;2024-03-06T09:25:14;61.38;;;24.08;;
38027;SDS011;23837;51.172;9.226;2024-03-06T09:27:40;64.55;;;24.10;;
38027;SDS011;23837;51.172;9.226;2024-03-06T09:30:05;57.20;;;23.05;;
38027;SDS011;23837;51.172;9.226;2024-03-06T09:32:31;63.72;;;24.92;;
38027;SDS011;23837;51.172;9.226;2024-03-06T09:34:57;72.35;;;26.10;;
38027;SDS011;23837;51.172;9.226;2024-03-06T09:37:23;76.55;;;27.15;;
38027;SDS011;23837;51.172;9.226;2024-03-06T09:39:48;76.95;;;27.33;;
38027;SDS011;23837;51.172;9.226;2024-03-06T09:42:14;78.90;;;26.50;;
38027;SDS011;23837;51.172;9.226;2024-03-06T09:44:40;78.13;;;27.27;;
38027;SDS011;23837;51.172;9.226;2024-03-06T09:47:05;76.25;;;27.20;;
38027;SDS011;23837;51.172;9.226;2024-03-06T09:49:31;74.30;;;27.17;;
38027;SDS011;23837;51.172;9.226;2024-03-06T09:51:57;74.90;;;26.08;;
38027;SDS011;23837;51.172;9.226;2024-03-06T09:54:23;76.40;;;27.25;;
38027;SDS011;23837;51.172;9.226;2024-03-06T09:56:51;75.45;;;26.42;;
38027;SDS011;23837;51.172;9.226;2024-03-06T09:59:16;73.50;;;26.02;;
38027;SDS011;23837;51.172;9.226;2024-03-06T10:01:47;65.80;;;25.48;;
38027;SDS011;23837;51.172;9.226;2024-03-06T10:04:21;73.10;;;25.58;;
38027;SDS011;23837;51.172;9.226;2024-03-06T10:06:46;70.15;;;24.98;;
38027;SDS011;23837;51.172;9.226;2024-03-06T10:09:12;61.63;;;23.42;;
38027;SDS011;23837;51.172;9.226;2024-03-06T10:11:38;63.20;;;23.75;;
38027;SDS011;23837;51.172;9.226;2024-03-06T10:14:04;66.50;;;25.13;;
38027;SDS011;23837;51.172;9.226;2024-03-06T10:16:29;66.78;;;26.27;;
38027;SDS011;23837;51.172;9.226;2024-03-06T10:18:54;63.08;;;25.30;;
38027;SDS011;23837;51.172;9.226;2024-03-06T10:21:29;67.88;;;23.55;;
38027;SDS011;23837;51.172;9.226;2024-03-06T10:23:57;68.53;;;25.17;;
38027;SDS011;23837;51.172;9.226;2024-03-06T10:26:24;66.35;;;23.98;;
38027;SDS011;23837;51.172;9.226;2024-03-06T10:28:49;62.33;;;24.95;;
38027;SDS011;23837;51.172;9.226;2024-03-06T10:31:26;65.63;;;25.05;;
38027;SDS011;23837;51.172;9.226;2024-03-06T10:33:51;61.67;;;24.05;;
38027;SDS011;23837;51.172;9.226;2024-03-06T10:36:18;62.27;;;26.70;;
38027;SDS011;23837;51.172;9.226;2024-03-06T10:38:44;60.97;;;26.63;;
38027;SDS011;23837;51.172;9.226;2024-03-06T10:41:10;64.03;;;24.38;;
38027;SDS011;23837;51.172;9.226;2024-03-06T10:43:39;67.95;;;26.45;;
38027;SDS011;23837;51.172;9.226;2024-03-06T10:46:06;65.05;;;25.70;;
38027;SDS011;23837;51.172;9.226;2024-03-06T10:48:31;57.28;;;23.52;;
38027;SDS011;23837;51.172;9.226;2024-03-06T10:50:57;57.38;;;23.95;;
38027;SDS011;23837;51.172;9.226;2024-03-06T10:53:22;59.40;;;23.17;;
38027;SDS011;23837;51.172;9.226;2024-03-06T10:55:51;62.17;;;23.20;;
38027;SDS011;23837;51.172;9.226;2024-03-06T10:58:17;56.20;;;22.70;;
38027;SDS011;23837;51.172;9.226;2024-03-06T11:00:44;58.20;;;23.10;;
38027;SDS011;23837;51.172;9.226;2024-03-06T11:03:11;53.00;;;21.73;;
38027;SDS011;23837;51.172;9.226;2024-03-06T11:05:40;53.35;;;22.33;;
38027;SDS011;23837;51.172;9.226;2024-03-06T11:08:06;54.58;;;22.10;;
38027;SDS011;23837;51.172;9.226;2024-03-06T11:10:33;50.08;;;21.58;;
38027;SDS011;23837;51.172;9.226;2024-03-06T11:12:58;55.33;;;21.55;;
38027;SDS011;23837;51.172;9.226;2024-03-06T11:15:24;58.42;;;22.60;;
38027;SDS011;23837;51.172;9.226;2024-03-06T11:17:49;53.67;;;21.13;;
38027;SDS011;23837;51.172;9.226;2024-03-06T11:20:18;52.60;;;21.15;;
38027;SDS011;23837;51.172;9.226;2024-03-06T11:28:09;53.97;;;21.60;;
38027;SDS011;23837;51.172;9.226;2024-03-06T11:30:44;50.90;;;21.30;;
38027;SDS011;23837;51.172;9.226;2024-03-06T11:33:11;51.22;;;22.08;;
38027;SDS011;23837;51.172;9.226;2024-03-06T11:35:37;48.83;;;20.55;;
38027;SDS011;23837;51.172;9.226;2024-03-06T11:38:05;51.60;;;21.43;;
38027;SDS011;23837;51.172;9.226;2024-03-06T11:40:31;52.33;;;20.40;;
38027;SDS011;23837;51.172;9.226;2024-03-06T11:42:56;47.00;;;21.05;;
38027;SDS011;23837;51.172;9.226;2024-03-06T11:45:22;47.50;;;19.58;;
38027;SDS011;23837;51.172;9.226;2024-03-06T11:48:02;46.15;;;19.00;;
38027;SDS011;23837;51.172;9.226;2024-03-06T11:50:28;46.33;;;19.70;;
38027;SDS011;23837;51.172;9.226;2024-03-06T11:52:55;40.80;;;18.48;;
38027;SDS011;23837;51.172;9.226;2024-03-06T11:55:21;39.70;;;17.88;;
38027;SDS011;23837;51.172;9.226;2024-03-06T11:57:46;42.75;;;17.73;;
38027;SDS011;23837;51.172;9.226;2024-03-06T12:00:12;41.85;;;18.83;;
38027;SDS011;23837;51.172;9.226;2024-03-06T12:02:38;37.20;;;17.33;;
38027;SDS011;23837;51.172;9.226;2024-03-06T12:05:04;39.92;;;17.77;;
38027;SDS011;23837;51.172;9.226;2024-03-06T12:07:30;43.80;;;19.10;;
38027;SDS011;23837;51.172;9.226;2024-03-06T12:09:57;44.40;;;20.65;;
38027;SDS011;23837;51.172;9.226;2024-03-06T12:12:23;46.95;;;20.58;;
38027;SDS011;23837;51.172;9.226;2024-03-06T12:14:56;44.50;;;19.90;;
38027;SDS011;23837;51.172;9.226;2024-03-06T12:17:22;39.78;;;18.67;;
38027;SDS011;23837;51.172;9.226;2024-03-06T12:19:47;46.40;;;20.13;;
38027;SDS011;23837;51.172;9.226;2024-03-06T12:22:13;44.72;;;20.02;;
38027;SDS011;23837;51.172;9.226;2024-03-06T12:24:40;43.75;;;20.88;;
38027;SDS011;23837;51.172;9.226;2024-03-06T12:27:06;45.60;;;20.42;;
38027;SDS011;23837;51.172;9.226;2024-03-06T12:29:33;42.13;;;18.75;;
38027;SDS011;23837;51.172;9.226;2024-03-06T12:31:59;31.48;;;15.05;;
38027;SDS011;23837;51.172;9.226;2024-03-06T12:34:25;42.03;;;19.63;;
38027;SDS011;23837;51.172;9.226;2024-03-06T12:36:50;43.28;;;20.38;;
38027;SDS011;23837;51.172;9.226;2024-03-06T12:39:16;44.97;;;21.17;;
38027;SDS011;23837;51.172;9.226;2024-03-06T12:41:46;48.53;;;22.08;;
38027;SDS011;23837;51.172;9.226;2024-03-06T12:44:11;48.25;;;22.38;;
38027;SDS011;23837;51.172;9.226;2024-03-06T12:46:37;46.05;;;22.17;;
38027;SDS011;23837;51.172;9.226;2024-03-06T12:49:02;49.58;;;22.50;;
38027;SDS011;23837;51.172;9.226;2024-03-06T12:51:27;47.55;;;23.25;;
38027;SDS011;23837;51.172;9.226;2024-03-06T12:53:53;47.50;;;22.55;;
38027;SDS011;23837;51.172;9.226;2024-03-06T12:56:18;46.15;;;21.30;;
38027;SDS011;23837;51.172;9.226;2024-03-06T12:58:44;48.35;;;21.92;;
38027;SDS011;23837;51.172;9.226;2024-03-06T13:01:09;92.35;;;37.45;;
38027;SDS011;23837;51.172;9.226;2024-03-06T13:03:35;62.42;;;27.75;;
38027;SDS011;23837;51.172;9.226;2024-03-06T13:06:01;62.95;;;28.20;;
38027;SDS011;23837;51.172;9.226;2024-03-06T13:08:27;46.60;;;22.73;;
38027;SDS011;23837;51.172;9.226;2024-03-06T13:10:53;100.35;;;36.70;;
38027;SDS011;23837;51.172;9.226;2024-03-06T13:13:18;89.75;;;33.28;;
38027;SDS011;23837;51.172;9.226;2024-03-06T13:15:43;48.70;;;22.35;;
38027;SDS011;23837;51.172;9.226;2024-03-06T13:18:09;45.10;;;21.67;;
38027;SDS011;23837;51.172;9.226;2024-03-06T13:20:35;46.58;;;22.58;;
38027;SDS011;23837;51.172;9.226;2024-03-06T13:23:00;44.13;;;22.48;;
38027;SDS011;23837;51.172;9.226;2024-03-06T13:25:26;80.63;;;35.45;;
38027;SDS011;23837;51.172;9.226;2024-03-06T13:27:51;86.40;;;36.80;;
38027;SDS011;23837;51.172;9.226;2024-03-06T13:30:17;85.53;;;37.05;;
38027;SDS011;23837;51.172;9.226;2024-03-06T13:32:42;47.78;;;23.23;;
38027;SDS011;23837;51.172;9.226;2024-03-06T13:35:08;49.75;;;22.83;;
38027;SDS011;23837;51.172;9.226;2024-03-06T13:37:38;45.70;;;21.95;;
38027;SDS011;23837;51.172;9.226;2024-03-06T13:40:03;56.30;;;29.48;;
38027;SDS011;23837;51.172;9.226;2024-03-06T13:42:32;48.58;;;24.33;;
38027;SDS011;23837;51.172;9.226;2024-03-06T13:44:57;48.97;;;23.73;;
38027;SDS011;23837;51.172;9.226;2024-03-06T13:47:23;50.72;;;24.23;;
38027;SDS011;23837;51.172;9.226;2024-03-06T13:49:48;46.83;;;22.50;;
38027;SDS011;23837;51.172;9.226;2024-03-06T13:52:14;42.13;;;21.48;;
38027;SDS011;23837;51.172;9.226;2024-03-06T13:54:41;40.90;;;21.63;;
38027;SDS011;23837;51.172;9.226;2024-03-06T13:57:09;45.50;;;22.05;;
38027;SDS011;23837;51.172;9.226;2024-03-06T13:59:35;47.90;;;22.45;;
38027;SDS011;23837;51.172;9.226;2024-03-06T14:02:00;45.90;;;21.92;;
38027;SDS011;23837;51.172;9.226;2024-03-06T14:04:26;43.33;;;21.17;;
38027;SDS011;23837;51.172;9.226;2024-03-06T14:06:52;45.85;;;21.52;;
38027;SDS011;23837;51.172;9.226;2024-03-06T14:09:18;46.15;;;22.70;;
38027;SDS011;23837;51.172;9.226;2024-03-06T14:11:43;44.50;;;22.38;;
38027;SDS011;23837;51.172;9.226;2024-03-06T14:14:09;44.83;;;22.60;;
38027;SDS011;23837;51.172;9.226;2024-03-06T14:16:35;57.08;;;26.20;;
38027;SDS011;23837;51.172;9.226;2024-03-06T14:19:00;118.75;;;49.35;;
38027;SDS011;23837;51.172;9.226;2024-03-06T14:21:26;55.88;;;26.83;;